Time;durP1;ratioP1;P1;durP2;ratioP2;P2;SDS_P1;SDS_P2;PMS_P1;PMS_P2;Temp;Humidity;BMP_temperature;BMP_pressure;BME280_temperature;BME280_humidity;BME280_pressure;Samples;Min_cycle;Max_cycle;Signal;HPM_P1;HPM_P2
2023/05/27 00:08:36;;;;;;;21.00;7.20;;;;;;;8.84;61.40;99408.67;435313;1254;98526;-41
2023/05/27 00:18:42;;;;;;;18.20;7.00;;;;;;;8.83;61.97;99411.71;435164;1254;111070;-45
2023/05/27 00:28:50;;;;;;;22.80;7.70;;;;;;;8.87;62.39;99414.03;435178;1251;107312;-43
2023/05/27 00:38:57;;;;;;;52.50;8.20;;;;;;;8.72;62.64;99414.23;435073;1264;96644;-43
2023/05/27 00:49:05;;;;;;;22.30;7.50;;;;;;;8.51;62.85;99426.40;435116;1254;110500;-42
2023/05/27 00:59:12;;;;;;;16.20;7.30;;;;;;;8.47;63.18;99433.51;435139;1255;108437;-41
2023/05/27 01:09:18;;;;;;;13.30;5.80;;;;;;;8.42;63.58;99439.78;435251;1251;97990;-41
2023/05/27 01:19:25;;;;;;;22.30;7.80;;;;;;;8.44;63.93;99440.84;435231;1255;107232;-41
2023/05/27 01:29:32;;;;;;;16.80;7.30;;;;;;;8.27;64.12;99433.36;436229;1253;97805;-42
2023/05/27 01:39:40;;;;;;;23.80;7.90;;;;;;;8.04;64.47;99437.03;435647;1253;97846;-42
2023/05/27 01:49:47;;;;;;;19.20;8.60;;;;;;;7.79;64.81;99437.73;435514;1251;107237;-42
2023/05/27 01:59:54;;;;;;;17.00;6.60;;;;;;;7.65;65.16;99443.77;435412;1254;97500;-42
2023/05/27 02:10:02;;;;;;;19.60;6.50;;;;;;;7.52;65.34;99445.11;435429;1253;110470;-42
2023/05/27 02:20:08;;;;;;;18.00;8.40;;;;;;;7.37;65.84;99449.05;435783;1249;108365;-42
2023/05/27 02:30:17;;;;;;;15.00;7.80;;;;;;;7.21;66.37;99454.75;435615;1254;96643;-42
2023/05/27 02:40:25;;;;;;;14.50;6.80;;;;;;;7.11;66.63;99458.98;435518;1254;107364;-41
2023/05/27 02:50:32;;;;;;;18.90;6.70;;;;;;;7.09;66.91;99463.90;435577;1254;97880;-41
2023/05/27 03:00:41;;;;;;;20.30;7.00;;;;;;;7.15;67.13;99469.67;435531;1253;110328;-40
2023/05/27 03:10:48;;;;;;;19.80;8.90;;;;;;;7.19;67.08;99477.58;435598;1254;108455;-42
2023/05/27 03:20:55;;;;;;;23.40;7.30;;;;;;;7.31;67.47;99485.80;435593;1254;97999;-42
2023/05/27 03:31:03;;;;;;;18.50;7.00;;;;;;;8.14;67.31;99486.17;435645;1250;110347;-42
2023/05/27 03:41:10;;;;;;;25.70;8.00;;;;;;;9.25;66.79;99492.48;435495;1250;107346;-43
2023/05/27 03:51:19;;;;;;;16.40;6.60;;;;;;;10.34;65.85;99496.20;435308;1253;491680;-43
2023/05/27 04:01:27;;;;;;;23.90;7.70;;;;;;;11.50;64.86;99507.64;435362;1249;108470;-43
2023/05/27 04:11:34;;;;;;;30.10;7.30;;;;;;;12.60;63.83;99515.88;435514;1254;107316;-42
2023/05/27 04:21:41;;;;;;;15.00;6.30;;;;;;;13.75;62.92;99523.21;436251;1250;97870;-43
2023/05/27 04:31:49;;;;;;;17.30;6.30;;;;;;;14.91;61.70;99526.65;437366;1254;110428;-42
2023/05/27 04:52:06;;;;;;;17.00;6.50;;;;;;;15.51;59.69;99520.67;435595;1250;97858;-43
2023/05/27 05:12:22;;;;;;;17.80;4.70;;;;;;;15.32;58.67;99522.28;435619;1254;107782;-43
2023/05/27 05:22:30;;;;;;;14.70;4.60;;;;;;;15.08;57.64;99516.48;435730;1249;97874;-43
2023/05/27 05:32:37;;;;;;;14.30;4.00;;;;;;;14.40;57.51;99519.27;435428;1249;110708;-43
2023/05/27 05:42:43;;;;;;;12.40;5.10;;;;;;;14.48;57.26;99524.74;435590;1254;109248;-42
2023/05/27 05:52:51;;;;;;;14.90;5.20;;;;;;;14.47;56.26;99538.61;435527;1250;118341;-43
2023/05/27 06:02:57;;;;;;;11.90;5.00;;;;;;;14.62;56.86;99540.42;435562;1254;108486;-43
2023/05/27 06:13:05;;;;;;;12.90;3.80;;;;;;;14.87;56.12;99546.70;435426;1250;97856;-42
2023/05/27 06:23:12;;;;;;;19.00;5.20;;;;;;;15.12;55.78;99545.72;435332;1250;110614;-45
2023/05/27 06:33:19;;;;;;;14.80;4.10;;;;;;;15.21;56.12;99546.73;435356;1252;107675;-44
2023/05/27 06:43:26;;;;;;;11.50;3.90;;;;;;;15.99;55.69;99552.12;435510;1250;97967;-43
2023/05/27 06:53:34;;;;;;;13.90;4.60;;;;;;;16.17;54.85;99551.16;435443;1250;109808;-43
2023/05/27 07:03:42;;;;;;;11.00;3.50;;;;;;;16.31;54.50;99561.58;435424;1252;97453;-43
2023/05/27 07:13:48;;;;;;;16.40;3.60;;;;;;;15.78;53.43;99565.23;435542;1250;109844;-44
2023/05/27 07:23:58;;;;;;;9.20;3.00;;;;;;;15.28;53.52;99556.74;435476;1249;108249;-42
2023/05/27 07:34:05;;;;;;;12.60;3.40;;;;;;;15.67;53.34;99552.09;435548;1254;122354;-43
2023/05/27 07:44:12;;;;;;;24.60;3.40;;;;;;;16.06;52.86;99546.96;435474;1249;108487;-43
2023/05/27 07:54:20;;;;;;;16.60;3.70;;;;;;;16.89;51.25;99546.20;435449;1249;97475;-44
2023/05/27 08:04:27;;;;;;;10.50;3.20;;;;;;;17.43;50.68;99541.91;435473;1253;110643;-42
2023/05/27 08:14:35;;;;;;;10.10;2.20;;;;;;;17.50;48.72;99535.25;435554;1249;108632;-42
2023/05/27 08:24:42;;;;;;;12.30;2.60;;;;;;;16.93;48.64;99535.41;435460;1252;97051;-42
2023/05/27 08:34:50;;;;;;;7.20;2.70;;;;;;;16.94;48.44;99534.73;435347;1252;108675;-44
2023/05/27 08:44:58;;;;;;;11.40;3.40;;;;;;;17.23;47.61;99524.91;435319;1252;97867;-42
2023/05/27 08:55:07;;;;;;;8.60;2.80;;;;;;;17.35;48.13;99526.75;435557;1252;110801;-43
2023/05/27 09:15:26;;;;;;;6.50;2.70;;;;;;;17.85;45.88;99521.08;435498;1250;97458;-42
2023/05/27 09:25:33;;;;;;;25.30;3.10;;;;;;;18.05;44.84;99514.00;435425;1250;107874;-42
2023/05/27 09:45:47;;;;;;;6.10;2.50;;;;;;;18.04;44.21;99505.23;435558;1250;110844;-43
2023/05/27 09:55:53;;;;;;;6.00;1.70;;;;;;;18.19;43.60;99499.62;435524;1252;108485;-42
2023/05/27 10:06:02;;;;;;;10.00;1.70;;;;;;;18.14;43.29;99488.34;435409;1249;97857;-42
2023/05/27 10:16:19;;;;;;;6.60;1.50;;;;;;;18.47;42.22;99473.48;435490;1250;110153;-43
2023/05/27 10:36:41;;;;;;;5.60;1.90;;;;;;;18.16;40.45;99467.95;435247;1250;97376;-43
2023/05/27 10:46:48;;;;;;;9.40;2.40;;;;;;;18.22;39.96;99461.35;435393;1252;110173;-42
2023/05/27 10:56:56;;;;;;;7.70;2.30;;;;;;;18.48;40.44;99458.11;435245;1250;107572;-45
2023/05/27 11:07:04;;;;;;;2.60;1.60;;;;;;;19.05;39.88;99447.56;435354;1250;97577;-43
2023/05/27 11:17:10;;;;;;;4.60;2.00;;;;;;;19.14;40.40;99443.77;435225;1252;109031;-45
2023/05/27 11:27:17;;;;;;;4.90;2.30;;;;;;;18.87;38.96;99439.48;435507;1250;107634;-43
2023/05/27 11:37:31;;;;;;;5.60;1.60;;;;;;;18.83;39.36;99440.23;435209;1255;98917;-44
2023/05/27 11:47:42;;;;;;;8.70;2.40;;;;;;;19.00;39.22;99433.77;435451;1254;110838;-43
2023/05/27 11:57:49;;;;;;;4.10;2.00;;;;;;;18.84;39.58;99429.40;435543;1254;107793;-43
2023/05/27 12:07:56;;;;;;;2.80;1.80;;;;;;;18.77;39.15;99427.08;435499;1256;98034;-44
2023/05/27 12:18:04;;;;;;;3.70;2.00;;;;;;;19.09;39.29;99420.71;435407;1249;96661;-43
2023/05/27 12:28:12;;;;;;;4.30;2.20;;;;;;;19.20;39.25;99419.71;435317;1255;108326;-44
2023/05/27 12:38:18;;;;;;;;;;;;;;;19.08;38.87;99415.95;435364;1255;97465;-43
2023/05/27 12:48:25;;;;;;;7.50;2.00;;;;;;;19.19;38.79;99405.17;435330;1253;97881;-43
2023/05/27 12:58:33;;;;;;;3.20;2.10;;;;;;;19.14;38.22;99398.09;435448;1250;110721;-42
2023/05/27 13:08:40;;;;;;;10.10;2.20;;;;;;;19.09;38.02;99395.36;435348;1263;107871;-43
2023/05/27 13:18:48;;;;;;;2.00;1.60;;;;;;;19.04;38.24;99382.32;435387;1252;116377;-43
2023/05/27 13:28:55;;;;;;;2.10;1.80;;;;;;;19.07;38.23;99381.14;435424;1252;108464;-43
2023/05/27 13:39:03;;;;;;;5.90;1.70;;;;;;;18.97;38.40;99376.14;435311;1250;96637;-42
2023/05/27 13:49:10;;;;;;;5.10;2.30;;;;;;;18.95;38.30;99370.95;435482;1252;109528;-43
2023/05/27 13:59:16;;;;;;;3.30;2.00;;;;;;;19.04;38.85;99358.79;435332;1252;107973;-44
2023/05/27 14:09:23;;;;;;;7.60;2.00;;;;;;;18.99;38.99;99352.20;435349;1254;97877;-43
2023/05/27 14:19:31;;;;;;;3.90;2.30;;;;;;;19.05;39.44;99346.67;435621;1250;111196;-42
2023/05/27 14:39:45;;;;;;;7.00;2.40;;;;;;;18.89;40.21;99338.84;435413;1255;97860;-42
2023/05/27 14:49:52;;;;;;;4.30;2.70;;;;;;;18.84;40.47;99331.97;435531;1250;112600;-43
2023/05/27 14:59:59;;;;;;;7.00;2.50;;;;;;;18.70;40.58;99324.08;435258;1250;107568;-43
2023/05/27 15:10:06;;;;;;;5.20;2.70;;;;;;;18.56;40.92;99313.31;435393;1252;97352;-43
2023/05/27 15:20:15;;;;;;;7.40;2.80;;;;;;;18.71;41.20;99302.44;435474;1253;109985;-43
2023/05/27 15:30:23;;;;;;;14.40;3.30;;;;;;;18.60;41.00;99301.54;435543;1252;107926;-43
2023/05/27 15:40:30;;;;;;;6.30;2.50;;;;;;;18.30;40.70;99302.33;435438;1254;96662;-43
2023/05/27 16:20:59;;;;;;;7.70;2.60;;;;;;;17.99;41.64;99273.21;435391;1251;111060;-43
2023/05/27 16:31:06;;;;;;;6.00;2.80;;;;;;;17.96;42.08;99262.70;435374;1254;107149;-43
2023/05/27 16:41:13;;;;;;;4.30;2.30;;;;;;;17.86;42.09;99259.56;435389;1251;97880;-43
2023/05/27 16:51:20;;;;;;;8.60;3.20;;;;;;;17.69;42.25;99255.63;435487;1250;109039;-42
2023/05/27 17:01:28;;;;;;;6.70;2.60;;;;;;;17.50;42.06;99248.09;435584;1263;108436;-43
2023/05/27 17:11:35;;;;;;;7.10;2.70;;;;;;;17.29;42.64;99242.83;435505;1251;97897;-44
2023/05/27 17:21:42;;;;;;;8.50;2.60;;;;;;;17.13;42.93;99244.66;435677;1252;110267;-42
2023/05/27 17:31:49;;;;;;;7.80;3.10;;;;;;;16.90;43.08;99243.59;435392;1251;108699;-41
2023/05/27 17:41:57;;;;;;;7.90;2.40;;;;;;;16.66;43.41;99249.98;435482;1251;97928;-42
2023/05/27 18:02:25;;;;;;;9.30;3.40;;;;;;;16.16;44.54;99257.02;435798;1253;106511;-42
2023/05/27 18:12:33;;;;;;;9.20;3.60;;;;;;;15.86;44.99;99261.73;435530;1251;97874;-44
2023/05/27 18:32:45;;;;;;;8.10;4.20;;;;;;;15.27;46.16;99255.81;435726;1251;107602;-43
2023/05/27 18:42:53;;;;;;;8.10;4.30;;;;;;;14.99;46.73;99265.77;435544;1254;96648;-43
2023/05/27 18:53:01;;;;;;;11.30;5.40;;;;;;;14.66;47.48;99275.77;435615;1250;109569;-43
2023/05/27 19:03:08;;;;;;;25.70;7.10;;;;;;;14.30;48.27;99284.85;435465;1254;108018;-44
2023/05/27 19:13:16;;;;;;;11.00;5.20;;;;;;;13.96;48.88;99290.35;435579;1251;96618;-43
2023/05/27 19:23:24;;;;;;;17.70;5.20;;;;;;;13.62;49.74;99294.64;435443;1251;110775;-42
2023/05/27 19:33:33;;;;;;;16.10;5.50;;;;;;;13.28;50.35;99302.80;435631;1255;108090;-43
2023/05/27 19:43:40;;;;;;;9.60;5.50;;;;;;;12.93;50.69;99307.47;435467;1251;97947;-44
2023/05/27 19:53:54;;;;;;;11.00;5.50;;;;;;;12.52;51.52;99312.48;435320;1253;110299;-43
2023/05/27 20:04:02;;;;;;;8.70;5.50;;;;;;;12.14;52.34;99314.13;435463;1253;107550;-43
2023/05/27 20:14:09;;;;;;;61.20;8.40;;;;;;;11.81;53.13;99314.36;435722;1253;97879;-43
2023/05/27 20:24:16;;;;;;;27.90;7.80;;;;;;;11.52;53.50;99312.59;435510;1254;110143;-42
2023/05/27 20:34:24;;;;;;;19.20;7.20;;;;;;;11.28;54.52;99309.82;435581;1254;107998;-46
2023/05/27 20:44:31;;;;;;;19.30;7.50;;;;;;;11.11;55.21;99299.51;435619;1254;97756;-41
2023/05/27 20:54:39;;;;;;;20.60;9.00;;;;;;;10.81;55.90;99298.60;435713;1251;109104;-44
2023/05/27 21:04:46;;;;;;;38.10;13.00;;;;;;;10.48;56.80;99297.48;435686;1251;97878;-44
2023/05/27 21:14:53;;;;;;;39.10;11.60;;;;;;;10.14;57.38;99295.64;435575;1251;110534;-43
2023/05/27 21:25:07;;;;;;;21.10;10.40;;;;;;;9.84;57.74;99295.87;435707;1252;108103;-42
2023/05/27 21:35:15;;;;;;;23.00;8.60;;;;;;;9.63;58.35;99293.73;435853;1251;96639;-43
2023/05/27 21:45:22;;;;;;;21.20;9.70;;;;;;;9.62;58.91;99296.58;435649;1254;110409;-43
2023/05/27 21:55:29;;;;;;;30.70;13.30;;;;;;;9.53;59.36;99297.58;435738;1253;109712;-43
2023/05/27 22:05:36;;;;;;;25.30;12.80;;;;;;;9.25;59.90;99286.48;435775;1254;98399;-42
2023/05/27 22:25:47;;;;;;;25.90;12.40;;;;;;;8.67;60.72;99285.52;435494;1254;108232;-43
2023/05/27 22:35:54;;;;;;;26.90;12.30;;;;;;;8.50;60.93;99275.39;435766;1254;97453;-42
2023/05/27 22:46:01;;;;;;;33.50;13.80;;;;;;;8.49;61.80;99269.83;435558;1251;110103;-43
2023/05/27 22:56:07;;;;;;;31.90;14.20;;;;;;;8.36;61.94;99265.14;435684;1254;107552;-42
2023/05/27 23:06:15;;;;;;;28.10;13.90;;;;;;;8.12;62.08;99258.95;435630;1254;96635;-43
2023/05/27 23:16:21;;;;;;;23.20;14.80;;;;;;;7.88;62.51;99251.52;435653;1254;109898;-43
2023/05/27 23:26:28;;;;;;;27.20;13.80;;;;;;;7.68;62.82;99249.41;435583;1254;108071;-44
2023/05/27 23:46:43;;;;;;;27.10;10.90;;;;;;;7.57;63.22;99235.18;435604;1254;107774;-42
2023/05/27 23:56:53;;;;;;;24.40;11.80;;;;;;;7.32;63.31;99235.17;435715;1254;97921;-43
